Weather History for Boone, IA

Change the Weather History Date:

Friday, November 16, 2012

  Actual Average Record
Temperature  
Mean Temperature 41 °F -  
Max Temperature 55 °F 47 °F 77 °F (2001)
Min Temperature 27 °F 24 °F -2 °F (1959)
Degree Days  
Heating Degree Days 24    
Moisture  
Dew Point 29 °F    
Average Humidity 67    
Maximum Humidity 83    
Minimum Humidity 33    
Precipitation  
Precipitation 0.00 in - - ()
Sea Level Pressure  
Sea Level Pressure 30.41 in    
Wind  
Wind Speed 7 mph (ESE)    
Max Wind Speed 13 mph    
Max Gust Speed -    
Visibility 10 miles    
Events      
Averages and records for this station are not official NWS values.
T = Trace of Precipitation, MM = Missing Value Source: NWS Daily Summary

Daily Weather History Graph

Daily Weather History Graph

Search for Another Location

Airport:

Trip Planner

Search our weather history database for the weather conditions in past years. The results will help you decide how hot, cold, wet, or windy it might be!

Date:

Astronomy

Nov. 16, 2012 Rise Set
Actual Time 7:07 AM CST 4:52 PM CST
Civil Twilight 6:37 AM CST 5:23 PM CST
Nautical Twilight 6:03 AM CST 5:56 PM CST
Astronomical Twilight 5:30 AM CST 6:29 PM CST
Moon 10:03 AM CST (11/16) 7:52 PM CST (11/16)
Length of Visible Light 10h 45m
Length of Day
9h 45m
Waxing Crescent, 12% of the Moon is Illuminated
Nov 16
Waxing Crescent
Nov 20
First Quarter
Nov 28
Full
Dec 6
Last Quarter
Dec 13
New

Hourly Weather History & Observations

Time (CST) Temp. Windchill Dew Point Humidity Pressure Visibility Wind Dir Wind Speed Gust Speed Precip Events Conditions
12:15 AM 34.2 °F 25.2 °F 29.3 °F 82% 30.43 in 10.0 mi NNW 12.7 mph - N/A   Clear
12:35 AM 33.8 °F 25.8 °F 28.9 °F 82% 30.43 in 10.0 mi NNW 10.4 mph - N/A   Clear
12:55 AM 33.3 °F 24.6 °F 28.4 °F 82% 30.43 in 10.0 mi NNW 11.5 mph - N/A   Clear
1:15 AM 32.9 °F 25.3 °F 28.0 °F 82% 30.43 in 10.0 mi NNW 9.2 mph - N/A   Clear
1:35 AM 32.4 °F 24.6 °F 27.5 °F 82% 30.44 in 10.0 mi North 9.2 mph - N/A   Clear
1:55 AM 32.0 °F 24.8 °F 27.0 °F 82% 30.44 in 10.0 mi NNW 8.1 mph - N/A   Clear
2:15 AM 31.6 °F 26.0 °F 26.6 °F 82% 30.44 in 10.0 mi NNW 5.8 mph - N/A   Clear
2:35 AM 31.1 °F 23.7 °F 26.4 °F 83% 30.45 in 10.0 mi North 8.1 mph - N/A   Clear
2:55 AM 31.6 °F 23.7 °F 26.2 °F 80% 30.44 in 10.0 mi North 9.2 mph - N/A   Clear
3:35 AM 30.7 °F 24.1 °F 25.7 °F 82% 30.44 in 10.0 mi North 6.9 mph - N/A   Clear
3:55 AM 30.0 °F 24.1 °F 25.0 °F 82% 30.44 in 10.0 mi North 5.8 mph - N/A   Clear
4:15 AM 29.7 °F 22.8 °F 24.4 °F 81% 30.44 in 10.0 mi North 6.9 mph - N/A   Clear
4:35 AM 30.0 °F 23.2 °F 24.6 °F 80% 30.43 in 10.0 mi North 6.9 mph - N/A   Clear
4:55 AM 29.3 °F 23.2 °F 24.1 °F 81% 30.44 in 10.0 mi North 5.8 mph - N/A   Clear
5:15 AM 29.7 °F 23.7 °F 23.9 °F 79% 30.44 in 10.0 mi North 5.8 mph - N/A   Clear
5:35 AM 29.3 °F 22.3 °F 23.7 °F 80% 30.44 in 10.0 mi North 6.9 mph - N/A   Clear
5:55 AM 28.6 °F 21.5 °F 23.4 °F 81% 30.43 in 10.0 mi North 6.9 mph - N/A   Clear
6:15 AM 28.0 °F 21.7 °F 23.2 °F 82% 30.43 in 10.0 mi North 5.8 mph - N/A   Clear
6:35 AM 27.9 °F 24.0 °F 22.8 °F 81% 30.43 in 10.0 mi North 3.5 mph - N/A   Clear
6:55 AM 27.3 °F 22.0 °F 22.3 °F 81% 30.44 in 10.0 mi North 4.6 mph - N/A   Clear
7:15 AM 27.9 °F 24.0 °F 22.5 °F 80% 30.44 in 10.0 mi North 3.5 mph - N/A   Clear
7:35 AM 28.9 °F 23.9 °F 22.8 °F 78% 30.45 in 10.0 mi North 4.6 mph - N/A   Clear
7:55 AM 30.2 °F - 24.1 °F 78% 30.45 in 10.0 mi Calm Calm - N/A   Clear
8:15 AM 32.0 °F 28.7 °F 25.2 °F 76% 30.45 in 10.0 mi NNE 3.5 mph - N/A   Clear
8:35 AM 33.8 °F 29.6 °F 25.7 °F 72% 30.46 in 10.0 mi NNE 4.6 mph - N/A   Clear
8:55 AM 34.9 °F 32.0 °F 26.1 °F 70% 30.46 in 10.0 mi NNE 3.5 mph - N/A   Clear
9:15 AM 37.2 °F - 26.8 °F 66% 30.46 in 10.0 mi Calm Calm - N/A   Clear
9:35 AM 38.8 °F - 27.3 °F 63% 30.46 in 10.0 mi Calm Calm - N/A   Clear
9:55 AM 40.6 °F - 28.6 °F 62% 30.47 in 10.0 mi Calm Calm - N/A   Clear
10:15 AM 42.1 °F - 29.5 °F 61% 30.47 in 10.0 mi Calm Calm - N/A   Clear
10:35 AM 43.7 °F 41.1 °F 30.7 °F 60% 30.47 in 10.0 mi SSE 4.6 mph - N/A   Clear
10:55 AM 45.1 °F 42.8 °F 31.5 °F 59% 30.47 in 10.0 mi South 4.6 mph - N/A   Clear
11:15 AM 47.1 °F - 31.8 °F 55% 30.47 in 10.0 mi WSW 3.5 mph - N/A   Clear
11:35 AM 48.7 °F - 31.6 °F 52% 30.46 in 10.0 mi WSW 6.9 mph - N/A   Clear
11:55 AM 49.8 °F - 32.0 °F 50% 30.45 in 10.0 mi WSW 6.9 mph - N/A   Clear
12:15 PM 50.4 °F - 32.4 °F 50% 30.44 in 10.0 mi WSW 5.8 mph - N/A   Clear
12:35 PM 50.9 °F - 32.5 °F 49% 30.44 in 10.0 mi WSW 3.5 mph - N/A   Clear
12:55 PM 52.2 °F - 31.8 °F 46% 30.43 in 10.0 mi West 3.5 mph - N/A   Clear
1:15 PM 52.7 °F - 31.8 °F 45% 30.43 in 10.0 mi WSW 3.5 mph - N/A   Clear
1:35 PM 54.0 °F - 30.7 °F 41% 30.42 in 10.0 mi SSE 3.5 mph - N/A   Clear
1:55 PM 54.5 °F - 29.5 °F 38% 30.41 in 10.0 mi Calm Calm - N/A   Clear
2:15 PM 55.0 °F - 28.6 °F 36% 30.40 in 10.0 mi SSE 5.8 mph - N/A   Clear
2:35 PM 55.2 °F - 26.2 °F 33% 30.40 in 10.0 mi SSE 4.6 mph - N/A   Clear
2:55 PM 55.2 °F - 27.9 °F 35% 30.40 in 10.0 mi SSE 4.6 mph - N/A   Clear
3:15 PM 55.4 °F - 27.5 °F 34% 30.39 in 10.0 mi SE 6.9 mph - N/A   Clear
3:35 PM 55.0 °F - 27.3 °F 34% 30.39 in 10.0 mi SE 6.9 mph - N/A   Clear
3:55 PM 54.5 °F - 29.3 °F 38% 30.39 in 10.0 mi SSE 6.9 mph - N/A   Clear
4:15 PM 52.9 °F - 30.2 °F 42% 30.39 in 10.0 mi SSE 6.9 mph - N/A   Clear
4:35 PM 50.7 °F - 32.0 °F 49% 30.38 in 10.0 mi SSE 5.8 mph - N/A   Clear
4:55 PM 47.7 °F - 32.0 °F 55% 30.38 in 10.0 mi SE 6.9 mph - N/A   Clear
5:15 PM 45.1 °F 42.0 °F 31.8 °F 60% 30.38 in 10.0 mi SE 5.8 mph - N/A   Clear
5:35 PM 42.4 °F 38.1 °F 31.1 °F 64% 30.37 in 10.0 mi SE 6.9 mph - N/A   Clear
5:55 PM 41.9 °F 38.2 °F 31.1 °F 66% 30.38 in 10.0 mi SE 5.8 mph - N/A   Clear
6:15 PM 39.7 °F 34.9 °F 30.2 °F 69% 30.38 in 10.0 mi SE 6.9 mph - N/A   Clear
6:35 PM 40.6 °F 34.8 °F 31.6 °F 70% 30.37 in 10.0 mi SE 9.2 mph - N/A   Clear
6:55 PM 42.1 °F 37.1 °F 32.0 °F 67% 30.37 in 10.0 mi SE 8.1 mph - N/A   Clear
7:15 PM 40.6 °F 35.4 °F 32.0 °F 71% 30.36 in 10.0 mi SE 8.1 mph - N/A   Clear
7:35 PM 41.7 °F 36.1 °F 32.0 °F 68% 30.36 in 10.0 mi SE 9.2 mph - N/A   Clear
7:55 PM 40.1 °F 34.7 °F 31.8 °F 72% 30.36 in 10.0 mi SE 8.1 mph - N/A   Clear
8:15 PM 40.3 °F 34.9 °F 32.0 °F 72% 30.36 in 10.0 mi SE 8.1 mph - N/A   Clear
8:35 PM 39.2 °F 33.6 °F 32.0 °F 75% 30.36 in 10.0 mi SE 8.1 mph - N/A   Clear
8:55 PM 39.2 °F 33.6 °F 32.0 °F 75% 30.36 in 10.0 mi SE 8.1 mph - N/A   Clear
9:15 PM 38.8 °F 33.8 °F 32.0 °F 76% 30.37 in 10.0 mi SE 6.9 mph - N/A   Clear
9:35 PM 38.7 °F 32.4 °F 32.0 °F 77% 30.36 in 10.0 mi SE 9.2 mph - N/A   Clear
9:55 PM 39.6 °F 34.7 °F 32.2 °F 75% 30.36 in 10.0 mi SE 6.9 mph - N/A   Clear
10:15 PM 39.4 °F 33.2 °F 32.4 °F 76% 30.36 in 10.0 mi SSE 9.2 mph - N/A   Clear
10:35 PM 39.4 °F 33.8 °F 32.4 °F 76% 30.36 in 10.0 mi SSE 8.1 mph - N/A   Clear
10:55 PM 39.2 °F 33.6 °F 32.2 °F 76% 30.36 in 10.0 mi SSE 8.1 mph - N/A   Clear
11:15 PM 38.7 °F 32.9 °F 32.0 °F 77% 30.37 in 10.0 mi SSE 8.1 mph - N/A   Clear
11:35 PM 38.3 °F 32.5 °F 32.0 °F 78% 30.37 in 10.0 mi SSE 8.1 mph - N/A   Clear
11:55 PM 37.9 °F 32.1 °F 32.0 °F 79% 30.37 in 10.0 mi SSE 8.1 mph - N/A   Clear